This is the latest recevied weather packets stored in our database for station/object LU8FCJ-5. If no packets are shown the sender has not sent any weather packets the latest 10 day(s).
| Time | Temp. | Humidity | Pressure | Rain* | Wind** | Luminosity | Snow |
|---|---|---|---|---|---|---|---|
| 1777856518 | 11.67° C | 66% | 1013.9 hPa | 0 mm | - | - | - |
| 1777856207 | 12.22° C | 65% | 1014 hPa | 0 mm | - | - | - |
| 1777855897 | 12.22° C | 64% | 1013.8 hPa | 0 mm | - | - | - |
| 1777855586 | 12.22° C | 64% | 1014 hPa | 0 mm | - | - | - |
| 1777855281 | 12.22° C | 65% | 1013.8 hPa | 0 mm | - | - | - |
| 1777854967 | 11.67° C | 67% | 1013.6 hPa | 0 mm | - | - | - |
| 1777854657 | 11.67° C | 68% | 1013.5 hPa | 0 mm | - | - | - |
| 1777854346 | 11.67° C | 69% | 1013.7 hPa | 0 mm | - | - | - |
| 1777853725 | 11.11° C | 70% | 1013.6 hPa | 0 mm | - | - | - |
| 1777853416 | 11.11° C | 70% | 1013.7 hPa | 0 mm | - | - | - |
| 1777853106 | 11.11° C | 70% | 1013.9 hPa | 0 mm | - | - | - |
| 1777852795 | 11.11° C | 70% | 1013.8 hPa | 0 mm | - | - | - |
| 1777852485 | 11.11° C | 70% | 1013.9 hPa | 0 mm | - | - | - |
| 1777852174 | 10.56° C | 69% | 1013.5 hPa | 0 mm | - | - | - |
| 1777851865 | 10.56° C | 69% | 1013.4 hPa | 0 mm | - | - | - |
| 1777851554 | 10.56° C | 69% | 1013.5 hPa | 0 mm | - | - | - |
| 1777851244 | 10.56° C | 68% | 1013.7 hPa | 0 mm | - | - | - |
| 1777850934 | 11.11° C | 68% | 1014 hPa | 0 mm | - | - | - |
| 1777850624 | 10.56° C | 68% | 1013.9 hPa | 0 mm | - | - | - |
| 1777850314 | 10.56° C | 69% | 1014 hPa | 0 mm | - | - | - |
| 1777850005 | 11.11° C | 68% | 1014 hPa | 0 mm | - | - | - |
| 1777849694 | 11.11° C | 68% | 1014 hPa | 0 mm | - | - | - |
| 1777849384 | 11.11° C | 67% | 1014.1 hPa | 0 mm | - | - | - |
| 1777849074 | 11.11° C | 68% | 1013.8 hPa | 0 mm | - | - | - |
| 1777848763 | 11.11° C | 68% | 1013.8 hPa | 0 mm | - | - | - |
* Rain latest hour (hover to see other rain measurements)
** Current wind speed in m/s (hover to see current wind gust speed)